Time;durP1;ratioP1;P1;durP2;ratioP2;P2;SDS_P1;SDS_P2;PMS_P1;PMS_P2;Temp;Humidity;BMP_temperature;BMP_pressure;BME280_temperature;BME280_humidity;BME280_pressure;Samples;Min_cycle;Max_cycle;Signal;HPM_P1;HPM_P2
2023/03/23 00:01:19;;;;;;;10.20;4.55;;;;;;;;;;6265901;22;20031;-85
2023/03/23 00:03:45;;;;;;;9.50;4.60;;;;;;;;;;6263436;22;20016;-85
2023/03/23 00:06:10;;;;;;;8.82;4.22;;;;;;;;;;6266220;22;20059;-85
2023/03/23 00:08:37;;;;;;;8.85;4.53;;;;;;;;;;6266179;22;20492;-85
2023/03/23 00:11:03;;;;;;;11.70;4.53;;;;;;;;;;6265056;22;20109;-85
2023/03/23 00:13:29;;;;;;;9.43;4.47;;;;;;;;;;6263252;22;20226;-85
2023/03/23 00:15:56;;;;;;;9.35;4.22;;;;;;;;;;6263796;22;20119;-85
2023/03/23 00:18:22;;;;;;;8.77;3.88;;;;;;;;;;6266691;22;20028;-86
2023/03/23 00:20:52;;;;;;;8.85;4.03;;;;;;;;;;6268634;22;20020;-85
2023/03/23 00:23:22;;;;;;;8.18;4.30;;;;;;;;;;6265729;22;20020;-85
2023/03/23 00:25:49;;;;;;;8.27;4.07;;;;;;;;;;6266546;22;20151;-86
2023/03/23 00:28:15;;;;;;;9.73;3.78;;;;;;;;;;6268331;22;20028;-85
2023/03/23 00:30:44;;;;;;;6.82;3.90;;;;;;;;;;6267506;22;21013;-85
2023/03/23 00:33:12;;;;;;;9.40;3.70;;;;;;;;;;6238988;22;20030;-85
2023/03/23 00:35:38;;;;;;;8.38;3.83;;;;;;;;;;6239844;22;20062;-85
2023/03/23 00:38:04;;;;;;;8.25;3.65;;;;;;;;;;6267210;22;20028;-85
2023/03/23 00:40:30;;;;;;;8.25;4.05;;;;;;;;;;6240937;22;20021;-85
2023/03/23 00:42:55;;;;;;;7.88;3.72;;;;;;;;;;6213167;22;20020;-86
2023/03/23 00:45:21;;;;;;;8.32;3.92;;;;;;;;;;6239788;22;20020;-86
2023/03/23 00:47:50;;;;;;;8.02;3.38;;;;;;;;;;6214467;22;20036;-86
2023/03/23 00:50:17;;;;;;;10.55;3.45;;;;;;;;;;6239682;22;20024;-86
2023/03/23 00:52:42;;;;;;;11.73;3.47;;;;;;;;;;6239401;22;20055;-86
2023/03/23 00:55:07;;;;;;;10.88;3.40;;;;;;;;;;6239263;22;20491;-86
2023/03/23 00:57:33;;;;;;;7.50;3.42;;;;;;;;;;6240295;22;20500;-85
2023/03/23 00:59:58;;;;;;;9.73;3.40;;;;;;;;;;6240419;22;20016;-85
2023/03/23 01:02:26;;;;;;;8.50;3.08;;;;;;;;;;6267863;22;20086;-85
2023/03/23 01:04:52;;;;;;;8.40;3.20;;;;;;;;;;6240629;22;20840;-85
2023/03/23 01:07:18;;;;;;;7.68;3.40;;;;;;;;;;6240648;22;20111;-85
2023/03/23 01:09:44;;;;;;;7.63;3.13;;;;;;;;;;6240290;22;20115;-86
2023/03/23 01:12:10;;;;;;;11.52;4.00;;;;;;;;;;6239226;22;20031;-86
2023/03/23 01:14:35;;;;;;;13.18;3.47;;;;;;;;;;6265746;22;20047;-86
2023/03/23 01:17:00;;;;;;;7.10;3.30;;;;;;;;;;6214392;22;20020;-86
2023/03/23 01:19:26;;;;;;;8.38;3.20;;;;;;;;;;6240292;22;20115;-85
2023/03/23 01:21:51;;;;;;;9.63;2.97;;;;;;;;;;6266870;22;20036;-86
2023/03/23 01:24:16;;;;;;;7.90;3.17;;;;;;;;;;6238262;22;20027;-86
2023/03/23 01:26:42;;;;;;;6.60;2.70;;;;;;;;;;6248082;22;20024;-86
2023/03/23 01:29:07;;;;;;;6.80;2.75;;;;;;;;;;6268541;22;20024;-85
2023/03/23 01:31:33;;;;;;;5.85;2.78;;;;;;;;;;6265543;22;20028;-86
2023/03/23 01:33:58;;;;;;;6.00;2.35;;;;;;;;;;6262941;22;20039;-86
2023/03/23 01:36:28;;;;;;;7.15;3.03;;;;;;;;;;6267067;22;20457;-86
2023/03/23 01:38:54;;;;;;;4.85;2.58;;;;;;;;;;6239037;22;20091;-86
2023/03/23 01:41:20;;;;;;;6.43;2.55;;;;;;;;;;6265381;22;20107;-86
2023/03/23 01:43:58;;;;;;;5.20;2.70;;;;;;;;;;6264290;22;20035;-86
2023/03/23 01:46:26;;;;;;;4.80;2.63;;;;;;;;;;6267203;22;20024;-86
2023/03/23 01:48:51;;;;;;;7.63;2.83;;;;;;;;;;6239446;22;20020;-86
2023/03/23 01:51:19;;;;;;;7.30;2.80;;;;;;;;;;6239588;22;20020;-85
2023/03/23 01:53:56;;;;;;;6.57;2.92;;;;;;;;;;6263507;22;20882;-86
2023/03/23 01:56:24;;;;;;;7.95;2.83;;;;;;;;;;6266633;22;20020;-86
2023/03/23 01:58:51;;;;;;;6.88;3.13;;;;;;;;;;6264805;22;20035;-86
2023/03/23 02:01:16;;;;;;;9.23;3.10;;;;;;;;;;6263926;22;20074;-85
2023/03/23 02:03:43;;;;;;;8.10;3.00;;;;;;;;;;6262834;22;20027;-86
2023/03/23 02:06:09;;;;;;;5.70;3.05;;;;;;;;;;6264529;22;20024;-86
2023/03/23 02:08:35;;;;;;;6.82;3.28;;;;;;;;;;6264997;22;20024;-86
2023/03/23 02:11:01;;;;;;;6.63;3.20;;;;;;;;;;6267277;22;20036;-85
2023/03/23 02:13:26;;;;;;;6.50;3.22;;;;;;;;;;6263687;22;20028;-86
2023/03/23 02:15:55;;;;;;;8.25;3.50;;;;;;;;;;6264939;22;20523;-85
2023/03/23 02:18:27;;;;;;;6.75;3.40;;;;;;;;;;6265887;22;20027;-86
2023/03/23 02:21:00;;;;;;;6.13;3.47;;;;;;;;;;6266024;22;20024;-86
2023/03/23 02:23:44;;;;;;;6.15;3.22;;;;;;;;;;6238130;22;20074;-85
2023/03/23 02:26:16;;;;;;;6.10;3.00;;;;;;;;;;6239432;22;20020;-86
2023/03/23 02:28:44;;;;;;;7.25;3.95;;;;;;;;;;6266769;22;20115;-86
2023/03/23 02:31:18;;;;;;;8.43;3.30;;;;;;;;;;6267923;22;20063;-86
2023/03/23 02:33:54;;;;;;;7.32;3.22;;;;;;;;;;6265908;22;20082;-86
2023/03/23 02:36:25;;;;;;;7.43;3.47;;;;;;;;;;6239850;22;20510;-85
2023/03/23 02:39:10;;;;;;;6.75;3.50;;;;;;;;;;6265095;22;20020;-86
2023/03/23 02:41:56;;;;;;;9.43;3.85;;;;;;;;;;6239744;22;20063;-86
2023/03/23 02:44:22;;;;;;;9.18;3.83;;;;;;;;;;6264115;22;20114;-86
2023/03/23 02:46:48;;;;;;;7.63;3.85;;;;;;;;;;6266901;22;20058;-85
2023/03/23 02:49:16;;;;;;;8.65;4.22;;;;;;;;;;6265779;22;20531;-86
2023/03/23 02:51:43;;;;;;;7.93;3.50;;;;;;;;;;6239714;22;20046;-85
2023/03/23 02:54:09;;;;;;;7.80;3.72;;;;;;;;;;6263697;22;20023;-86
2023/03/23 02:56:35;;;;;;;7.82;3.70;;;;;;;;;;6239136;22;20031;-85
2023/03/23 02:59:00;;;;;;;6.47;3.83;;;;;;;;;;6267317;22;20276;-85
2023/03/23 03:01:25;;;;;;;7.15;3.80;;;;;;;;;;6239954;22;20032;-85
2023/03/23 03:03:52;;;;;;;8.13;4.18;;;;;;;;;;6264498;22;20027;-85
2023/03/23 03:06:36;;;;;;;12.15;3.50;;;;;;;;;;6263942;22;20492;-85
2023/03/23 03:09:06;;;;;;;7.80;3.60;;;;;;;;;;6264944;22;20051;-86
2023/03/23 03:11:33;;;;;;;9.02;4.10;;;;;;;;;;6264478;22;20589;-85
2023/03/23 03:14:02;;;;;;;8.40;3.88;;;;;;;;;;6237843;22;20480;-85
2023/03/23 03:16:35;;;;;;;8.50;3.58;;;;;;;;;;6265803;22;20028;-85
2023/03/23 03:19:12;;;;;;;9.02;3.83;;;;;;;;;;6263210;22;20028;-86
2023/03/23 03:21:41;;;;;;;12.50;3.15;;;;;;;;;;6263369;22;20024;-86
2023/03/23 03:24:10;;;;;;;9.35;3.40;;;;;;;;;;6263431;22;20866;-85
2023/03/23 03:26:36;;;;;;;7.38;3.45;;;;;;;;;;6239034;22;20419;-85
2023/03/23 03:29:02;;;;;;;8.02;3.03;;;;;;;;;;6266705;22;20465;-85
2023/03/23 03:31:28;;;;;;;11.63;3.10;;;;;;;;;;6238810;22;20028;-85
2023/03/23 03:34:00;;;;;;;8.60;3.00;;;;;;;;;;6263274;22;20035;-85
2023/03/23 03:36:34;;;;;;;7.22;2.88;;;;;;;;;;6263787;22;20031;-85
2023/03/23 03:39:09;;;;;;;7.35;3.08;;;;;;;;;;6265754;22;20028;-85
2023/03/23 03:41:35;;;;;;;8.23;2.80;;;;;;;;;;6265653;22;20481;-86
2023/03/23 03:44:01;;;;;;;6.70;2.60;;;;;;;;;;6238442;22;20024;-85
2023/03/23 03:46:29;;;;;;;6.72;2.63;;;;;;;;;;6264088;22;20030;-85
2023/03/23 03:48:56;;;;;;;7.25;2.38;;;;;;;;;;6264704;22;20036;-86
2023/03/23 03:51:21;;;;;;;11.18;2.70;;;;;;;;;;6265879;22;20024;-85
2023/03/23 03:53:46;;;;;;;6.30;2.60;;;;;;;;;;6262954;22;20016;-85
2023/03/23 03:56:13;;;;;;;5.13;2.65;;;;;;;;;;6264180;22;20465;-86
2023/03/23 03:58:39;;;;;;;6.97;2.80;;;;;;;;;;6266397;22;20824;-85
2023/03/23 04:01:04;;;;;;;7.97;2.72;;;;;;;;;;6267400;22;20091;-85
2023/03/23 04:03:30;;;;;;;8.68;2.63;;;;;;;;;;6264370;22;20111;-85
2023/03/23 04:05:56;;;;;;;5.40;2.78;;;;;;;;;;6266965;22;20052;-85
2023/03/23 04:08:22;;;;;;;9.75;3.50;;;;;;;;;;6264817;22;20347;-85
2023/03/23 04:10:48;;;;;;;9.57;2.88;;;;;;;;;;6238693;22;20020;-85
2023/03/23 04:13:13;;;;;;;4.72;2.13;;;;;;;;;;6264270;22;20028;-85
2023/03/23 04:15:38;;;;;;;5.93;2.50;;;;;;;;;;6264235;22;20032;-85
2023/03/23 04:18:05;;;;;;;7.03;2.90;;;;;;;;;;6239390;22;20449;-86
2023/03/23 04:20:31;;;;;;;5.65;2.45;;;;;;;;;;6240246;22;20023;-85
2023/03/23 04:22:56;;;;;;;7.80;2.60;;;;;;;;;;6270714;22;20046;-86
2023/03/23 04:25:22;;;;;;;5.40;2.17;;;;;;;;;;6247129;22;20047;-87
2023/03/23 04:27:52;;;;;;;14.20;2.75;;;;;;;;;;6273624;22;20031;-87
2023/03/23 04:30:21;;;;;;;5.97;2.00;;;;;;;;;;6273599;22;20024;-86
2023/03/23 04:32:50;;;;;;;5.15;2.22;;;;;;;;;;6272696;22;20113;-86
2023/03/23 04:35:16;;;;;;;7.15;2.10;;;;;;;;;;6274284;22;20035;-86
2023/03/23 04:37:42;;;;;;;9.10;1.90;;;;;;;;;;6274555;22;20023;-86
2023/03/23 04:40:12;;;;;;;8.27;2.15;;;;;;;;;;6272890;22;20016;-85
2023/03/23 04:42:38;;;;;;;5.97;2.40;;;;;;;;;;6246614;22;20040;-86
2023/03/23 04:45:06;;;;;;;8.05;2.20;;;;;;;;;;6272692;22;20428;-86
2023/03/23 04:47:32;;;;;;;9.75;1.80;;;;;;;;;;6272845;22;21054;-85
2023/03/23 04:49:58;;;;;;;5.72;2.03;;;;;;;;;;6274237;22;20781;-86
2023/03/23 04:52:25;;;;;;;7.38;1.58;;;;;;;;;;6273860;22;20028;-86
2023/03/23 04:54:51;;;;;;;6.38;1.67;;;;;;;;;;6275793;22;20032;-86
2023/03/23 04:57:16;;;;;;;8.07;1.60;;;;;;;;;;6272754;22;20021;-85
2023/03/23 04:59:43;;;;;;;6.78;1.88;;;;;;;;;;6272508;22;20024;-86
2023/03/23 05:02:09;;;;;;;8.25;1.88;;;;;;;;;;6274744;22;20028;-85
2023/03/23 05:04:34;;;;;;;6.43;1.90;;;;;;;;;;6277100;22;20016;-85
2023/03/23 05:07:00;;;;;;;8.05;1.83;;;;;;;;;;6274036;22;20384;-85
2023/03/23 05:09:25;;;;;;;7.32;1.65;;;;;;;;;;6274299;22;20044;-86
2023/03/23 05:11:50;;;;;;;9.90;1.70;;;;;;;;;;6275655;22;20028;-85
2023/03/23 05:14:21;;;;;;;5.93;1.85;;;;;;;;;;6276756;22;20039;-87
2023/03/23 05:16:48;;;;;;;8.32;1.95;;;;;;;;;;6272650;22;20027;-85
2023/03/23 05:19:14;;;;;;;11.68;2.10;;;;;;;;;;6275681;22;20024;-85
2023/03/23 05:21:39;;;;;;;15.02;1.98;;;;;;;;;;6276643;22;20012;-85
2023/03/23 05:24:05;;;;;;;8.52;1.90;;;;;;;;;;6247605;22;20020;-85
2023/03/23 05:26:32;;;;;;;7.07;1.70;;;;;;;;;;6274846;22;20062;-85
2023/03/23 05:28:58;;;;;;;9.45;1.55;;;;;;;;;;6274401;22;20020;-86
2023/03/23 05:31:24;;;;;;;6.93;1.70;;;;;;;;;;6249107;22;20020;-85
2023/03/23 05:33:50;;;;;;;8.52;1.75;;;;;;;;;;6272920;22;20039;-85
2023/03/23 05:36:15;;;;;;;7.18;1.50;;;;;;;;;;6272816;22;20060;-85
2023/03/23 05:38:45;;;;;;;10.93;1.80;;;;;;;;;;6246559;22;20026;-85
2023/03/23 05:41:10;;;;;;;7.53;1.98;;;;;;;;;;6248051;22;20496;-85
2023/03/23 05:43:36;;;;;;;8.07;1.70;;;;;;;;;;6273455;22;20020;-85
2023/03/23 05:46:02;;;;;;;8.68;2.10;;;;;;;;;;6274886;22;20454;-85
2023/03/23 05:48:28;;;;;;;12.48;2.35;;;;;;;;;;6273531;22;20031;-85
2023/03/23 05:50:53;;;;;;;5.95;2.25;;;;;;;;;;6272672;22;20042;-85
2023/03/23 05:53:18;;;;;;;9.70;2.47;;;;;;;;;;6272861;22;20024;-85
2023/03/23 05:55:44;;;;;;;6.90;1.63;;;;;;;;;;6277425;22;20016;-85
2023/03/23 05:58:10;;;;;;;8.70;1.95;;;;;;;;;;6272330;22;20078;-85
2023/03/23 06:00:36;;;;;;;13.52;2.22;;;;;;;;;;6272697;22;20028;-84
2023/03/23 06:03:02;;;;;;;9.35;1.73;;;;;;;;;;6272058;22;20052;-84
2023/03/23 06:05:28;;;;;;;13.20;2.55;;;;;;;;;;6269300;22;20027;-83
2023/03/23 06:07:57;;;;;;;13.70;2.67;;;;;;;;;;6273695;22;20072;-82
2023/03/23 06:10:23;;;;;;;14.13;2.45;;;;;;;;;;6269215;22;20604;-84
2023/03/23 06:12:50;;;;;;;12.55;2.15;;;;;;;;;;6242867;22;20176;-83
2023/03/23 06:15:15;;;;;;;10.55;1.98;;;;;;;;;;6268206;22;20835;-85
2023/03/23 06:17:41;;;;;;;10.27;2.22;;;;;;;;;;6267748;22;20035;-84
2023/03/23 06:20:09;;;;;;;11.98;2.33;;;;;;;;;;6241644;22;20458;-85
2023/03/23 06:22:39;;;;;;;10.27;2.65;;;;;;;;;;6268039;22;20020;-85
2023/03/23 06:25:08;;;;;;;13.52;2.20;;;;;;;;;;6241046;22;20428;-86
2023/03/23 06:27:35;;;;;;;9.45;2.03;;;;;;;;;;6241887;22;20400;-86
2023/03/23 06:30:00;;;;;;;9.93;1.90;;;;;;;;;;6241691;22;21007;-86
2023/03/23 06:32:28;;;;;;;11.35;2.30;;;;;;;;;;6271218;22;20095;-86
2023/03/23 06:34:54;;;;;;;14.07;2.00;;;;;;;;;;6269510;22;20066;-86
2023/03/23 06:37:20;;;;;;;7.22;2.05;;;;;;;;;;6267009;22;20456;-87
2023/03/23 06:39:45;;;;;;;9.77;1.92;;;;;;;;;;6243035;22;20139;-86
2023/03/23 06:42:11;;;;;;;10.32;2.22;;;;;;;;;;6271342;22;20071;-86
2023/03/23 06:44:37;;;;;;;8.95;1.80;;;;;;;;;;6242743;22;20021;-86
2023/03/23 06:47:03;;;;;;;9.52;2.22;;;;;;;;;;6244937;22;20365;-84
2023/03/23 06:49:28;;;;;;;9.02;1.80;;;;;;;;;;6272727;22;20020;-84
2023/03/23 06:51:55;;;;;;;12.63;2.60;;;;;;;;;;6244751;22;20016;-84
2023/03/23 06:54:21;;;;;;;10.45;2.47;;;;;;;;;;6268631;22;20028;-87
2023/03/23 06:56:46;;;;;;;8.20;2.20;;;;;;;;;;6271498;22;20453;-85
2023/03/23 06:59:12;;;;;;;12.68;2.25;;;;;;;;;;6270260;22;20028;-83
2023/03/23 07:01:38;;;;;;;11.63;2.55;;;;;;;;;;6244668;22;20484;-83
2023/03/23 07:04:03;;;;;;;8.27;1.88;;;;;;;;;;6268257;22;20020;-84
2023/03/23 07:06:28;;;;;;;9.20;2.20;;;;;;;;;;6270840;22;20038;-83
2023/03/23 07:08:54;;;;;;;8.65;2.25;;;;;;;;;;6243640;22;20024;-83
2023/03/23 07:11:19;;;;;;;13.13;2.35;;;;;;;;;;6271775;22;20508;-84
2023/03/23 07:13:46;;;;;;;10.80;2.20;;;;;;;;;;6268651;22;20020;-83
2023/03/23 07:16:11;;;;;;;8.90;2.10;;;;;;;;;;6243721;22;20023;-83
2023/03/23 07:18:36;;;;;;;9.65;1.73;;;;;;;;;;6273042;22;20055;-83
2023/03/23 07:21:01;;;;;;;9.52;1.88;;;;;;;;;;6270062;22;20079;-84
2023/03/23 07:23:28;;;;;;;9.05;1.85;;;;;;;;;;6271299;22;20317;-84
2023/03/23 07:25:53;;;;;;;11.80;2.85;;;;;;;;;;6271929;22;20032;-83
2023/03/23 07:28:19;;;;;;;7.10;1.80;;;;;;;;;;6243900;22;20020;-84
2023/03/23 07:30:44;;;;;;;9.55;1.55;;;;;;;;;;6272595;22;20043;-84
2023/03/23 07:33:10;;;;;;;10.77;2.00;;;;;;;;;;6217449;22;20036;-81
2023/03/23 07:35:36;;;;;;;10.02;1.80;;;;;;;;;;6217870;22;20107;-83
2023/03/23 07:38:02;;;;;;;8.68;2.80;;;;;;;;;;6244213;22;20039;-84
2023/03/23 07:40:28;;;;;;;8.70;1.85;;;;;;;;;;6244844;22;20027;-83
2023/03/23 07:42:54;;;;;;;9.73;1.77;;;;;;;;;;6269323;22;20020;-85
2023/03/23 07:45:20;;;;;;;8.05;1.90;;;;;;;;;;6240036;22;20024;-84
2023/03/23 07:47:45;;;;;;;9.43;2.30;;;;;;;;;;6243114;22;20024;-84
2023/03/23 07:50:12;;;;;;;13.25;2.38;;;;;;;;;;6269393;22;20392;-83
2023/03/23 07:52:37;;;;;;;9.30;2.28;;;;;;;;;;6270271;22;20028;-83
2023/03/23 07:55:04;;;;;;;10.75;2.70;;;;;;;;;;6241777;22;20622;-85
2023/03/23 07:57:30;;;;;;;7.78;2.03;;;;;;;;;;6270420;22;20481;-85
2023/03/23 07:59:56;;;;;;;7.68;2.55;;;;;;;;;;6218237;22;20028;-84
2023/03/23 08:02:22;;;;;;;9.57;2.40;;;;;;;;;;6216633;22;20028;-84
2023/03/23 08:04:48;;;;;;;9.90;2.30;;;;;;;;;;6269525;22;20029;-83
2023/03/23 08:07:16;;;;;;;8.85;1.85;;;;;;;;;;6269875;22;20610;-84
2023/03/23 08:09:42;;;;;;;8.73;2.47;;;;;;;;;;6243076;22;20629;-84
2023/03/23 08:12:08;;;;;;;7.47;2.28;;;;;;;;;;6270614;22;21232;-84
2023/03/23 08:14:34;;;;;;;7.07;2.00;;;;;;;;;;6238728;22;20034;-84
2023/03/23 08:17:00;;;;;;;11.80;2.30;;;;;;;;;;6269974;22;20030;-84
2023/03/23 08:19:26;;;;;;;8.93;1.95;;;;;;;;;;6218528;22;20026;-85
2023/03/23 08:21:51;;;;;;;8.35;2.00;;;;;;;;;;6241853;22;20052;-84
2023/03/23 08:24:16;;;;;;;11.02;2.90;;;;;;;;;;6268032;22;20059;-85
2023/03/23 08:26:42;;;;;;;7.65;2.80;;;;;;;;;;6249371;22;20020;-85
2023/03/23 08:29:08;;;;;;;10.77;2.20;;;;;;;;;;6268441;22;20024;-84
2023/03/23 08:31:35;;;;;;;13.40;2.40;;;;;;;;;;6269260;22;20039;-84
2023/03/23 08:34:01;;;;;;;6.13;1.75;;;;;;;;;;6266387;22;20020;-87
2023/03/23 08:36:28;;;;;;;4.55;1.60;;;;;;;;;;6269906;22;20090;-87
2023/03/23 08:38:53;;;;;;;6.88;2.00;;;;;;;;;;6270901;22;20522;-86
2023/03/23 08:41:18;;;;;;;8.68;1.95;;;;;;;;;;6243484;22;20024;-87
2023/03/23 08:43:44;;;;;;;7.68;1.92;;;;;;;;;;6269710;22;20028;-87
2023/03/23 08:46:10;;;;;;;13.52;2.42;;;;;;;;;;6271669;22;20023;-87
2023/03/23 08:48:38;;;;;;;10.15;2.30;;;;;;;;;;6271795;22;20027;-86
2023/03/23 08:51:04;;;;;;;11.70;2.35;;;;;;;;;;6271512;22;20024;-87
2023/03/23 08:53:30;;;;;;;10.30;2.05;;;;;;;;;;6270348;22;20381;-87
2023/03/23 08:55:56;;;;;;;10.95;2.20;;;;;;;;;;6270029;22;20024;-86
2023/03/23 08:58:22;;;;;;;6.40;1.77;;;;;;;;;;6269086;22;20028;-87
2023/03/23 09:00:48;;;;;;;6.80;1.98;;;;;;;;;;6270031;22;20020;-86
2023/03/23 09:03:15;;;;;;;9.18;1.75;;;;;;;;;;6269922;22;20035;-86
2023/03/23 09:05:45;;;;;;;8.52;2.17;;;;;;;;;;6244660;22;20046;-87
2023/03/23 09:08:12;;;;;;;7.75;2.22;;;;;;;;;;6273841;22;20813;-86
2023/03/23 09:10:38;;;;;;;7.13;2.00;;;;;;;;;;6271303;22;20032;-84
2023/03/23 09:13:04;;;;;;;8.25;2.00;;;;;;;;;;6241362;22;20028;-84
2023/03/23 09:15:29;;;;;;;10.80;2.05;;;;;;;;;;6269227;22;20024;-84
2023/03/23 09:17:56;;;;;;;6.38;1.70;;;;;;;;;;6267791;22;20032;-84
2023/03/23 09:20:23;;;;;;;11.57;1.90;;;;;;;;;;6270505;22;20459;-83
2023/03/23 09:22:49;;;;;;;9.13;2.17;;;;;;;;;;6270254;22;20020;-84
2023/03/23 09:25:18;;;;;;;11.60;2.38;;;;;;;;;;6269840;22;20058;-84
2023/03/23 09:27:46;;;;;;;8.98;2.03;;;;;;;;;;6269534;22;20035;-84
2023/03/23 09:30:14;;;;;;;8.23;2.13;;;;;;;;;;6270298;22;20020;-83
2023/03/23 09:32:39;;;;;;;7.60;2.03;;;;;;;;;;6271317;22;20107;-84
2023/03/23 09:35:08;;;;;;;7.65;1.70;;;;;;;;;;6270351;22;20095;-84
2023/03/23 09:37:35;;;;;;;8.98;1.58;;;;;;;;;;6268877;22;20138;-83
2023/03/23 09:40:03;;;;;;;9.35;2.47;;;;;;;;;;6268031;22;20031;-83
2023/03/23 09:42:29;;;;;;;9.65;1.90;;;;;;;;;;6242817;22;20031;-83
2023/03/23 09:45:17;;;;;;;9.45;1.77;;;;;;;;;;6267808;22;20028;-83
2023/03/23 09:47:46;;;;;;;9.70;2.10;;;;;;;;;;6269889;22;20099;-83
2023/03/23 09:50:16;;;;;;;10.50;1.95;;;;;;;;;;6269499;22;20066;-83
2023/03/23 09:53:14;;;;;;;6.60;1.77;;;;;;;;;;6268603;22;20024;-83
2023/03/23 09:55:40;;;;;;;10.88;2.65;;;;;;;;;;6201452;22;20484;-83
2023/03/23 09:58:10;;;;;;;10.77;2.35;;;;;;;;;;6270948;22;20028;-83
2023/03/23 10:00:41;;;;;;;14.00;2.08;;;;;;;;;;6273020;22;20024;-83
2023/03/23 10:03:12;;;;;;;8.88;2.10;;;;;;;;;;6242619;22;20020;-83
2023/03/23 10:05:37;;;;;;;11.13;1.85;;;;;;;;;;6271030;22;20125;-83
2023/03/23 10:08:13;;;;;;;9.18;1.70;;;;;;;;;;6269303;22;20039;-83
2023/03/23 10:10:45;;;;;;;8.23;1.98;;;;;;;;;;6269879;22;20035;-83
2023/03/23 10:13:22;;;;;;;9.20;1.73;;;;;;;;;;6268299;22;20437;-83
2023/03/23 10:15:49;;;;;;;10.13;1.80;;;;;;;;;;6270948;22;20031;-84
2023/03/23 10:18:29;;;;;;;6.93;1.88;;;;;;;;;;6268950;22;20035;-83
2023/03/23 10:20:55;;;;;;;7.70;1.70;;;;;;;;;;6242204;22;20027;-83
2023/03/23 10:23:39;;;;;;;13.65;1.50;;;;;;;;;;6266205;22;20082;-83
2023/03/23 10:26:30;;;;;;;9.40;1.75;;;;;;;;;;6269975;22;20038;-83
2023/03/23 10:28:59;;;;;;;8.55;1.60;;;;;;;;;;6236503;22;20078;-83
2023/03/23 10:31:27;;;;;;;12.63;2.20;;;;;;;;;;6274039;22;20035;-81
2023/03/23 10:33:55;;;;;;;9.40;1.92;;;;;;;;;;6243521;22;20040;-82
2023/03/23 10:36:33;;;;;;;10.90;1.50;;;;;;;;;;6242463;22;20362;-83
2023/03/23 10:39:05;;;;;;;8.65;1.65;;;;;;;;;;6270056;22;20480;-82
2023/03/23 10:41:30;;;;;;;11.43;1.95;;;;;;;;;;6243763;22;20563;-82
2023/03/23 10:43:56;;;;;;;10.38;2.13;;;;;;;;;;6213655;22;20100;-83
2023/03/23 10:46:29;;;;;;;12.40;2.08;;;;;;;;;;6269047;22;20508;-83
2023/03/23 10:48:56;;;;;;;16.27;2.20;;;;;;;;;;6216577;22;20028;-83
2023/03/23 10:51:24;;;;;;;9.93;1.90;;;;;;;;;;6217144;22;20027;-82
2023/03/23 10:53:52;;;;;;;10.63;2.35;;;;;;;;;;6238880;22;20280;-82
2023/03/23 10:56:25;;;;;;;10.93;2.05;;;;;;;;;;6240827;22;20561;-82
2023/03/23 10:58:50;;;;;;;10.18;2.10;;;;;;;;;;6269874;22;20052;-83
2023/03/23 11:01:18;;;;;;;7.90;1.90;;;;;;;;;;6268864;22;20044;-82
2023/03/23 11:03:48;;;;;;;7.65;1.65;;;;;;;;;;6216164;22;20020;-82
2023/03/23 11:06:20;;;;;;;11.20;2.47;;;;;;;;;;6244135;22;20031;-83
2023/03/23 11:08:51;;;;;;;8.60;2.30;;;;;;;;;;6214455;22;20028;-82
2023/03/23 11:11:20;;;;;;;10.23;1.70;;;;;;;;;;6219458;22;20020;-83
2023/03/23 11:13:46;;;;;;;8.38;1.60;;;;;;;;;;6240818;22;20028;-83
2023/03/23 11:16:25;;;;;;;12.43;1.85;;;;;;;;;;6269755;22;20043;-83
2023/03/23 11:18:52;;;;;;;10.40;2.08;;;;;;;;;;6270933;22;20530;-83
2023/03/23 11:21:19;;;;;;;11.10;2.00;;;;;;;;;;6241324;22;20027;-83
2023/03/23 11:23:48;;;;;;;10.93;1.83;;;;;;;;;;6267341;22;20074;-82
2023/03/23 11:26:27;;;;;;;13.23;2.10;;;;;;;;;;6241844;22;20861;-82
2023/03/23 11:29:11;;;;;;;10.35;2.10;;;;;;;;;;6268360;22;20065;-82
2023/03/23 11:31:41;;;;;;;9.10;1.85;;;;;;;;;;6268198;22;20028;-82
2023/03/23 11:34:17;;;;;;;6.82;1.48;;;;;;;;;;6263818;22;20032;-82
2023/03/23 11:36:48;;;;;;;8.40;1.50;;;;;;;;;;6267846;22;21115;-82
2023/03/23 11:39:14;;;;;;;;;;;;;;;;;;6265463;22;20023;-82
2023/03/23 11:41:39;;;;;;;9.80;2.00;;;;;;;;;;6264570;22;19919;-83
2023/03/23 11:44:10;;;;;;;12.43;1.98;;;;;;;;;;6240785;22;20024;-83
2023/03/23 11:46:39;;;;;;;12.55;1.85;;;;;;;;;;6268041;22;20012;-83
2023/03/23 11:49:09;;;;;;;10.98;1.83;;;;;;;;;;6241826;22;20032;-83
2023/03/23 11:51:40;;;;;;;10.77;2.28;;;;;;;;;;6269083;22;20036;-82
2023/03/23 11:54:25;;;;;;;6.75;1.42;;;;;;;;;;6267332;22;20036;-82
2023/03/23 11:56:50;;;;;;;12.50;2.00;;;;;;;;;;6266833;22;20031;-83
2023/03/23 11:59:26;;;;;;;11.20;1.73;;;;;;;;;;6267358;22;20528;-83
2023/03/23 12:02:30;;;;;;;12.20;2.05;;;;;;;;;;6267291;22;20059;-83
2023/03/23 12:05:14;;;;;;;13.43;2.03;;;;;;;;;;6146097;23;20069;-83
2023/03/23 12:07:52;;;;;;;9.05;1.85;;;;;;;;;;6145571;23;20029;-82
2023/03/23 12:10:39;;;;;;;13.57;2.45;;;;;;;;;;6225609;22;20171;-82
2023/03/23 12:13:14;;;;;;;10.57;1.60;;;;;;;;;;6263626;22;21118;-83
2023/03/23 12:15:58;;;;;;;9.75;1.98;;;;;;;;;;6266122;22;20074;-81
2023/03/23 12:18:38;;;;;;;10.00;2.03;;;;;;;;;;6266607;22;20030;-83
2023/03/23 12:21:16;;;;;;;8.70;1.90;;;;;;;;;;6267241;22;20451;-83
2023/03/23 12:23:41;;;;;;;9.02;1.90;;;;;;;;;;6265862;22;20023;-83
2023/03/23 12:26:13;;;;;;;10.30;2.08;;;;;;;;;;6268269;22;20024;-83
2023/03/23 12:28:45;;;;;;;11.77;2.53;;;;;;;;;;6240406;22;20126;-83
2023/03/23 12:31:26;;;;;;;12.15;1.73;;;;;;;;;;6267820;22;20807;-83
2023/03/23 12:34:11;;;;;;;9.10;2.00;;;;;;;;;;6214677;22;21004;-83
2023/03/23 12:36:43;;;;;;;8.57;2.03;;;;;;;;;;6240510;22;20028;-83
2023/03/23 12:39:27;;;;;;;10.25;1.80;;;;;;;;;;6240947;22;20028;-82
2023/03/23 12:42:16;;;;;;;10.50;1.80;;;;;;;;;;6270157;22;20499;-83
2023/03/23 12:44:52;;;;;;;8.38;1.90;;;;;;;;;;6194341;22;20035;-83
2023/03/23 12:47:26;;;;;;;6.80;1.63;;;;;;;;;;6242224;22;20594;-83
2023/03/23 12:49:59;;;;;;;8.70;1.75;;;;;;;;;;6241973;22;20031;-83
2023/03/23 12:52:39;;;;;;;7.07;1.25;;;;;;;;;;6243144;22;20683;-83
2023/03/23 12:55:16;;;;;;;8.85;1.65;;;;;;;;;;6267111;22;20019;-82
2023/03/23 12:57:44;;;;;;;6.55;1.27;;;;;;;;;;6268228;22;20038;-82
2023/03/23 13:00:25;;;;;;;9.18;1.70;;;;;;;;;;6241592;22;20024;-82
2023/03/23 13:03:00;;;;;;;8.27;1.60;;;;;;;;;;6240554;22;20057;-82
2023/03/23 13:05:39;;;;;;;6.35;1.77;;;;;;;;;;6268520;22;20008;-83
2023/03/23 13:08:11;;;;;;;7.53;1.73;;;;;;;;;;6241473;22;20476;-83
2023/03/23 13:10:43;;;;;;;6.85;1.60;;;;;;;;;;6242145;22;20115;-83
2023/03/23 13:13:13;;;;;;;7.20;1.70;;;;;;;;;;6265417;22;20178;-82
2023/03/23 13:15:58;;;;;;;11.23;1.95;;;;;;;;;;6240022;22;20031;-82
2023/03/23 13:18:47;;;;;;;8.98;2.00;;;;;;;;;;6240578;22;20024;-83
2023/03/23 13:21:26;;;;;;;11.10;1.50;;;;;;;;;;6241728;22;20012;-82
2023/03/23 13:23:57;;;;;;;14.10;2.10;;;;;;;;;;6213676;22;20020;-82
2023/03/23 13:26:22;;;;;;;8.73;1.55;;;;;;;;;;6217797;22;20039;-82
2023/03/23 13:28:57;;;;;;;7.90;1.85;;;;;;;;;;6269123;22;20035;-82
2023/03/23 13:31:26;;;;;;;9.57;1.63;;;;;;;;;;6267266;22;20059;-83
2023/03/23 13:34:02;;;;;;;9.15;1.85;;;;;;;;;;6266387;22;20104;-82
2023/03/23 13:36:53;;;;;;;7.15;1.48;;;;;;;;;;6238764;22;20028;-78
2023/03/23 13:39:20;;;;;;;9.82;1.90;;;;;;;;;;6260212;22;20560;-83
2023/03/23 13:41:58;;;;;;;7.80;1.90;;;;;;;;;;6266410;22;20054;-82
2023/03/23 13:44:26;;;;;;;7.15;1.70;;;;;;;;;;6264435;22;21032;-82
2023/03/23 13:46:55;;;;;;;6.15;1.92;;;;;;;;;;6264453;22;20564;-83
2023/03/23 13:49:22;;;;;;;6.47;1.60;;;;;;;;;;6266970;22;20090;-83
2023/03/23 13:51:47;;;;;;;8.23;1.65;;;;;;;;;;6269683;22;20871;-83
2023/03/23 13:54:12;;;;;;;7.90;1.80;;;;;;;;;;6264301;22;20098;-83
2023/03/23 13:56:53;;;;;;;6.70;1.77;;;;;;;;;;6268353;22;20103;-82
2023/03/23 13:59:29;;;;;;;11.02;2.05;;;;;;;;;;6264537;22;20516;-82
2023/03/23 14:01:56;;;;;;;10.40;2.25;;;;;;;;;;6265269;22;20099;-82
2023/03/23 14:04:22;;;;;;;6.57;2.05;;;;;;;;;;6265718;22;20394;-83
2023/03/23 14:06:49;;;;;;;6.95;2.22;;;;;;;;;;6266058;22;20028;-82
2023/03/23 14:09:16;;;;;;;9.25;2.05;;;;;;;;;;6267539;22;20019;-83
2023/03/23 14:11:51;;;;;;;10.90;2.20;;;;;;;;;;6265652;22;20024;-83
2023/03/23 14:14:24;;;;;;;9.48;2.33;;;;;;;;;;6265082;22;20028;-83
2023/03/23 14:16:53;;;;;;;6.90;1.67;;;;;;;;;;6240784;22;20028;-83
2023/03/23 14:19:22;;;;;;;8.68;2.05;;;;;;;;;;6239646;22;20024;-83
2023/03/23 14:21:55;;;;;;;6.10;1.80;;;;;;;;;;6267701;22;20103;-83
2023/03/23 14:24:23;;;;;;;7.45;1.70;;;;;;;;;;6266980;22;20105;-83
2023/03/23 14:26:51;;;;;;;5.32;1.83;;;;;;;;;;6267442;22;20047;-83
2023/03/23 14:29:17;;;;;;;7.47;1.52;;;;;;;;;;6214777;22;20416;-83
2023/03/23 14:31:43;;;;;;;9.05;2.60;;;;;;;;;;6268291;22;20016;-84
2023/03/23 14:34:13;;;;;;;6.22;1.95;;;;;;;;;;6266505;22;20118;-83
2023/03/23 14:36:39;;;;;;;10.63;1.77;;;;;;;;;;6266087;22;20591;-83
2023/03/23 14:39:05;;;;;;;11.25;1.70;;;;;;;;;;6214925;22;20099;-83
2023/03/23 14:41:32;;;;;;;9.55;1.85;;;;;;;;;;6268586;22;20869;-84
2023/03/23 14:43:59;;;;;;;8.35;1.52;;;;;;;;;;6240097;22;20375;-83
2023/03/23 14:46:25;;;;;;;8.88;2.08;;;;;;;;;;6239628;22;21074;-84
2023/03/23 14:48:50;;;;;;;6.65;1.85;;;;;;;;;;6268983;22;20016;-84
2023/03/23 14:51:20;;;;;;;6.32;1.58;;;;;;;;;;6215096;22;20330;-83